Terminal Aerodrome Forecast
Issued by NWS Dodge City, KS

Home | Current Version | Previous Version | Graphics & Text | Print | Product List | Glossary Off
Versions: 1 2 3 4 5 6 7 8 9 10 11 12 13 14 15 16 17 18 19 20 21 22 23 24 25

165
FTUS43 KDDC 212338
TAFDDC
TAF
KDDC 212338Z 2200/2224 08008KT P6SM VCSH OVC080
     FM220400 02011KT P6SM VCSH OVC030
     FM220700 01015G23KT P6SM OVC035
     FM221300 33013KT P6SM SCT200=

USA.gov is the U.S. government's official web portal to all federal, state and local government web resources and services.